createdAt,value
2019-03-26T00:00:08.740Z,12.23
2019-03-26T00:02:42.553Z,12.57
2019-03-26T00:05:16.159Z,12.07
2019-03-26T00:07:49.877Z,12.70
2019-03-26T00:10:23.355Z,12.40
2019-03-26T00:12:57.461Z,12.60
2019-03-26T00:15:31.457Z,12.30
2019-03-26T00:18:05.362Z,12.07
2019-03-26T00:20:39.270Z,11.87
2019-03-26T00:23:14.369Z,12.67
2019-03-26T00:25:49.196Z,12.67
2019-03-26T00:28:22.648Z,12.23
2019-03-26T00:30:56.253Z,12.33
2019-03-26T00:33:36.331Z,11.77
2019-03-26T00:36:07.037Z,13.30
2019-03-26T00:38:40.999Z,11.83
2019-03-26T00:41:15.143Z,11.97
2019-03-26T00:43:48.632Z,12.67
2019-03-26T00:46:22.490Z,13.53
2019-03-26T00:48:56.179Z,13.20
2019-03-26T00:51:29.934Z,14.17
2019-03-26T00:54:03.837Z,13.57
2019-03-26T00:56:37.386Z,15.07
2019-03-26T00:59:11.099Z,15.07
2019-03-26T01:01:44.778Z,15.93
2019-03-26T01:04:31.769Z,17.10
2019-03-26T01:06:55.219Z,15.57
2019-03-26T01:09:29.118Z,15.53
2019-03-26T01:12:02.757Z,17.07
2019-03-26T01:14:37.249Z,16.37
2019-03-26T01:17:11.492Z,16.23
2019-03-26T01:19:46.320Z,14.37
2019-03-26T01:22:20.038Z,16.03
2019-03-26T01:24:55.225Z,15.70
2019-03-26T01:27:28.711Z,15.03
2019-03-26T01:30:02.563Z,14.70
2019-03-26T01:32:37.461Z,13.93
2019-03-26T01:35:11.605Z,15.30
2019-03-26T01:37:45.477Z,15.87
2019-03-26T01:40:21.212Z,15.87
2019-03-26T01:42:55.194Z,15.47
2019-03-26T01:45:31.327Z,15.67
2019-03-26T01:48:04.196Z,15.33
2019-03-26T01:50:37.135Z,14.23
2019-03-26T01:53:10.013Z,14.40
2019-03-26T01:55:42.954Z,15.20
2019-03-26T01:58:15.847Z,14.70
2019-03-26T02:00:48.988Z,13.73
2019-03-26T02:03:21.834Z,13.27
2019-03-26T02:05:55.034Z,13.43
2019-03-26T02:08:27.906Z,13.90
2019-03-26T02:11:00.785Z,13.53
2019-03-26T02:13:33.656Z,12.77
2019-03-26T02:16:06.478Z,13.23
2019-03-26T02:18:39.258Z,12.20
2019-03-26T02:21:13.126Z,12.40
2019-03-26T02:23:46.029Z,13.17
2019-03-26T02:26:18.947Z,12.33
2019-03-26T02:28:51.910Z,12.43
2019-03-26T02:31:24.730Z,12.63
2019-03-26T02:33:57.656Z,12.23
2019-03-26T02:36:30.582Z,11.97
2019-03-26T02:39:04.744Z,11.90
2019-03-26T02:41:38.204Z,11.80
2019-03-26T02:44:11.422Z,12.40
2019-03-26T02:46:44.670Z,13.03
2019-03-26T02:49:17.681Z,11.23
2019-03-26T02:52:02.266Z,12.03
2019-03-26T02:54:36.334Z,11.57
2019-03-26T02:57:09.905Z,10.47
2019-03-26T02:59:44.382Z,11.00
2019-03-26T03:02:18.231Z,11.57
2019-03-26T03:04:51.910Z,14.07
2019-03-26T03:07:25.448Z,36.30
2019-03-26T03:09:59.214Z,23.90
2019-03-26T03:12:32.825Z,15.33
2019-03-26T03:15:07.272Z,12.43
2019-03-26T03:17:41.189Z,12.00
2019-03-26T03:20:15.092Z,10.90
2019-03-26T03:22:49.086Z,11.43
2019-03-26T03:25:22.868Z,10.73
2019-03-26T03:27:56.585Z,9.67
2019-03-26T03:30:30.523Z,10.80
2019-03-26T03:33:04.527Z,10.30
2019-03-26T03:35:51.368Z,10.80
2019-03-26T03:38:13.720Z,11.00
2019-03-26T03:40:47.452Z,9.73
2019-03-26T03:43:21.557Z,9.90
2019-03-26T03:45:56.665Z,10.20
2019-03-26T03:48:30.959Z,9.60
2019-03-26T03:51:07.874Z,10.87
2019-03-26T03:53:41.574Z,9.73
2019-03-26T03:56:17.535Z,9.27
2019-03-26T03:58:53.285Z,10.63
2019-03-26T04:01:28.594Z,10.60
2019-03-26T04:04:02.225Z,10.40
2019-03-26T04:06:37.128Z,10.57
2019-03-26T04:09:10.695Z,9.63
2019-03-26T04:11:44.791Z,9.97
2019-03-26T04:14:18.166Z,9.57
2019-03-26T04:16:51.697Z,9.60
2019-03-26T04:19:25.444Z,10.50
2019-03-26T04:21:59.287Z,10.23
2019-03-26T04:24:33.068Z,10.07
2019-03-26T04:27:06.899Z,10.47
2019-03-26T04:29:40.737Z,11.20
2019-03-26T04:32:14.749Z,10.73
2019-03-26T04:34:48.707Z,10.77
2019-03-26T04:37:22.640Z,9.83
2019-03-26T04:39:56.376Z,9.93
2019-03-26T04:42:30.326Z,10.53
2019-03-26T04:45:04.233Z,10.17
2019-03-26T04:47:38.081Z,10.50
2019-03-26T04:50:11.822Z,11.37
2019-03-26T04:52:46.343Z,10.57
2019-03-26T04:55:20.412Z,10.17
2019-03-26T04:57:54.408Z,10.23
2019-03-26T05:00:28.432Z,10.23
2019-03-26T05:03:03.859Z,10.87
2019-03-26T05:05:37.518Z,9.23
2019-03-26T05:08:11.241Z,10.67
2019-03-26T05:10:45.089Z,10.80
2019-03-26T05:13:19.005Z,10.43
2019-03-26T05:15:52.744Z,10.33
2019-03-26T05:18:27.112Z,10.67
2019-03-26T05:21:01.058Z,11.00
2019-03-26T05:23:35.013Z,10.87
2019-03-26T05:26:09.958Z,11.87
2019-03-26T05:28:43.927Z,11.43
2019-03-26T05:31:17.944Z,11.77
2019-03-26T05:33:51.826Z,10.30
2019-03-26T05:36:25.885Z,10.93
2019-03-26T05:38:59.723Z,11.00
2019-03-26T05:41:33.548Z,12.03
2019-03-26T05:44:08.802Z,12.13
2019-03-26T05:46:42.550Z,11.33
2019-03-26T05:49:16.642Z,11.70
2019-03-26T05:51:50.663Z,12.70
2019-03-26T05:54:24.506Z,11.60
2019-03-26T05:57:00.808Z,11.43
2019-03-26T05:59:34.614Z,11.63
2019-03-26T06:02:15.243Z,11.40
2019-03-26T06:04:46.521Z,11.50
2019-03-26T06:07:20.673Z,11.80
2019-03-26T06:09:54.832Z,12.13
2019-03-26T06:12:28.619Z,10.87
2019-03-26T06:15:03.900Z,11.53
2019-03-26T06:17:37.601Z,11.90
2019-03-26T06:20:13.415Z,10.97
2019-03-26T06:22:47.273Z,11.53
2019-03-26T06:25:21.392Z,12.17
2019-03-26T06:27:55.104Z,10.10
2019-03-26T06:30:28.781Z,10.13
2019-03-26T06:33:02.825Z,10.50
2019-03-26T06:35:37.113Z,10.20
2019-03-26T06:38:10.882Z,9.53
2019-03-26T06:54:04.457Z,9.20
2019-03-26T06:56:37.461Z,7.83
2019-03-26T06:59:10.290Z,8.40
2019-03-26T07:01:43.139Z,7.37
2019-03-26T07:04:15.978Z,8.57
2019-03-26T07:06:48.749Z,8.30
2019-03-26T07:09:21.625Z,7.43
2019-03-26T07:11:54.470Z,7.73
2019-03-26T07:14:27.241Z,9.70
2019-03-26T07:17:00.151Z,7.83
2019-03-26T07:19:32.872Z,8.23
2019-03-26T07:22:05.885Z,7.13
2019-03-26T07:24:38.636Z,9.77
2019-03-26T07:27:11.625Z,6.53
2019-03-26T07:29:44.523Z,7.53
2019-03-26T07:32:17.401Z,7.63
2019-03-26T07:34:51.363Z,7.43
2019-03-26T07:37:24.268Z,8.70
2019-03-26T07:39:57.142Z,9.13
2019-03-26T07:42:29.906Z,7.43
2019-03-26T07:45:02.706Z,8.03
2019-03-26T07:47:35.592Z,7.77
2019-03-26T07:50:09.690Z,8.87
2019-03-26T07:52:42.447Z,8.30
2019-03-26T07:55:15.727Z,7.63
2019-03-26T07:57:48.722Z,7.30
2019-03-26T08:00:32.743Z,7.53
2019-03-26T08:03:06.048Z,7.53
2019-03-26T08:05:39.019Z,8.07
2019-03-26T08:08:11.868Z,7.63
2019-03-26T08:10:44.640Z,7.37
2019-03-26T08:13:17.723Z,7.13
2019-03-26T08:15:50.691Z,6.43
2019-03-26T08:18:23.639Z,6.67
2019-03-26T08:20:57.609Z,7.00
2019-03-26T08:23:30.621Z,6.23
2019-03-26T08:26:03.565Z,6.60
2019-03-26T08:28:36.492Z,6.63
2019-03-26T08:31:09.487Z,6.70
2019-03-26T08:33:42.306Z,6.93
2019-03-26T08:36:15.131Z,6.47
2019-03-26T08:38:48.209Z,6.50
2019-03-26T08:41:21.288Z,6.73
2019-03-26T08:43:54.974Z,6.77
2019-03-26T08:46:27.862Z,6.80
2019-03-26T08:49:00.818Z,6.20
2019-03-26T08:51:33.727Z,6.70
2019-03-26T08:54:06.637Z,7.00
2019-03-26T08:56:39.630Z,7.07
2019-03-26T08:59:12.866Z,7.57
2019-03-26T09:01:45.674Z,7.10
2019-03-26T09:04:18.618Z,6.60
2019-03-26T09:06:51.612Z,6.27
2019-03-26T09:09:24.561Z,6.80
2019-03-26T09:11:57.348Z,6.23
2019-03-26T09:14:30.195Z,5.77
2019-03-26T09:17:03.062Z,6.27
2019-03-26T09:19:36.018Z,5.90
2019-03-26T09:22:09.055Z,6.10
2019-03-26T09:24:41.985Z,6.40
2019-03-26T09:27:15.165Z,6.33
2019-03-26T09:29:48.048Z,6.43
2019-03-26T09:32:21.094Z,6.50
2019-03-26T09:34:54.011Z,5.93
2019-03-26T09:37:26.877Z,6.37
2019-03-26T09:39:59.855Z,6.80
2019-03-26T09:42:32.891Z,7.40
2019-03-26T09:45:06.785Z,6.53
2019-03-26T09:47:39.844Z,7.03
2019-03-26T09:50:13.681Z,7.33
2019-03-26T09:52:46.565Z,7.80
2019-03-26T09:55:19.517Z,8.10
2019-03-26T09:57:52.366Z,8.37
2019-03-26T10:00:25.316Z,8.10
2019-03-26T10:02:58.327Z,8.93
2019-03-26T10:05:31.330Z,8.93
2019-03-26T10:08:04.250Z,8.80
2019-03-26T10:10:37.260Z,9.53
2019-03-26T10:13:10.197Z,9.20
2019-03-26T10:15:43.148Z,9.33
2019-03-26T10:18:16.202Z,8.80
2019-03-26T10:20:49.242Z,9.47
2019-03-26T10:23:22.201Z,9.97
2019-03-26T10:25:55.040Z,9.43
2019-03-26T10:28:28.085Z,9.63
2019-03-26T10:31:01.052Z,10.47
2019-03-26T10:33:33.995Z,10.20
2019-03-26T10:36:07.078Z,10.00
2019-03-26T10:38:40.007Z,9.83
2019-03-26T10:41:12.935Z,10.67
2019-03-26T10:43:45.824Z,11.10
2019-03-26T10:46:18.767Z,11.50
2019-03-26T10:48:51.795Z,11.73
2019-03-26T10:51:24.757Z,11.87
2019-03-26T10:53:57.758Z,11.80
2019-03-26T10:56:32.611Z,11.27
2019-03-26T10:59:05.544Z,11.50
2019-03-26T11:01:38.494Z,10.67
2019-03-26T11:04:11.618Z,10.63
2019-03-26T11:06:44.642Z,11.13
2019-03-26T11:09:24.170Z,10.97
2019-03-26T11:11:52.428Z,11.27
2019-03-26T11:14:25.229Z,12.07
2019-03-26T11:16:58.432Z,11.17
2019-03-26T11:19:31.431Z,11.30
2019-03-26T11:22:04.389Z,9.97
2019-03-26T11:24:37.644Z,10.67
2019-03-26T11:27:10.844Z,11.00
2019-03-26T11:29:43.954Z,11.07
2019-03-26T11:32:17.007Z,10.20
2019-03-26T11:34:49.915Z,10.87
2019-03-26T11:37:22.955Z,10.80
2019-03-26T11:39:56.080Z,10.50
2019-03-26T11:42:28.970Z,11.63
2019-03-26T11:45:01.938Z,11.43
2019-03-26T11:47:35.052Z,11.77
2019-03-26T11:50:08.553Z,11.10
2019-03-26T11:52:41.754Z,10.43
2019-03-26T11:55:14.953Z,11.03
2019-03-26T11:57:48.035Z,11.33
2019-03-26T12:00:25.574Z,10.30
2019-03-26T12:02:58.600Z,10.83
2019-03-26T12:05:31.511Z,10.73
2019-03-26T12:08:05.914Z,10.97
2019-03-26T12:10:38.895Z,10.73
2019-03-26T12:13:12.034Z,11.67
2019-03-26T12:15:45.115Z,11.77
2019-03-26T12:18:18.366Z,11.33
2019-03-26T12:20:51.438Z,11.10
2019-03-26T12:23:24.538Z,11.20
2019-03-26T12:25:57.632Z,10.93
2019-03-26T12:28:30.811Z,10.87
2019-03-26T12:31:03.895Z,10.60
2019-03-26T12:33:36.944Z,10.80
2019-03-26T12:36:09.923Z,11.80
2019-03-26T12:38:42.918Z,11.03
2019-03-26T12:41:16.155Z,11.30
2019-03-26T12:43:49.007Z,11.30
2019-03-26T12:46:21.891Z,11.17
2019-03-26T12:48:54.794Z,10.63
2019-03-26T12:51:27.787Z,10.80
2019-03-26T12:54:00.911Z,12.17
2019-03-26T12:56:34.056Z,14.07
2019-03-26T12:59:07.076Z,12.23
2019-03-26T13:01:40.201Z,10.70
2019-03-26T13:04:16.642Z,11.17
2019-03-26T13:06:47.807Z,11.07
2019-03-26T13:09:21.034Z,10.90
2019-03-26T13:11:54.009Z,10.90
2019-03-26T13:14:27.062Z,10.73
2019-03-26T13:17:00.025Z,9.60
2019-03-26T13:19:33.146Z,10.40
2019-03-26T13:22:06.238Z,11.30
2019-03-26T13:24:39.288Z,10.87
2019-03-26T13:27:12.386Z,10.17
2019-03-26T13:29:45.561Z,11.87
2019-03-26T13:32:18.517Z,10.10
2019-03-26T13:34:51.597Z,9.47
2019-03-26T13:37:24.555Z,11.07
2019-03-26T13:39:57.668Z,10.63
2019-03-26T13:42:31.184Z,10.17
2019-03-26T13:45:04.453Z,10.63
2019-03-26T13:47:37.696Z,10.03
2019-03-26T13:50:12.395Z,10.30
2019-03-26T13:52:45.498Z,10.20
2019-03-26T13:55:18.915Z,10.83
2019-03-26T13:57:52.378Z,10.63
2019-03-26T14:00:37.461Z,10.60
2019-03-26T14:03:10.984Z,10.30
2019-03-26T14:05:44.028Z,11.97
2019-03-26T14:08:17.262Z,10.50
2019-03-26T14:10:50.384Z,10.20
2019-03-26T14:13:23.352Z,10.70
2019-03-26T14:15:56.301Z,10.53
2019-03-26T14:18:29.444Z,10.20
2019-03-26T14:21:02.455Z,9.17
2019-03-26T14:23:35.462Z,10.43
2019-03-26T14:26:08.781Z,9.00
2019-03-26T14:28:41.778Z,9.83
2019-03-26T14:31:14.744Z,8.83
2019-03-26T14:33:47.753Z,8.70
2019-03-26T14:36:20.723Z,8.27
2019-03-26T14:38:53.877Z,8.83
2019-03-26T14:41:27.123Z,9.43
2019-03-26T14:44:00.083Z,8.70
2019-03-26T14:46:33.348Z,8.40
2019-03-26T14:49:06.552Z,9.27
2019-03-26T14:51:39.646Z,8.67
2019-03-26T14:54:12.640Z,7.97
2019-03-26T14:56:45.771Z,8.93
2019-03-26T14:59:18.865Z,8.97
2019-03-26T15:01:52.085Z,8.47
2019-03-26T15:04:25.159Z,8.40
2019-03-26T15:06:58.375Z,7.77
2019-03-26T15:09:31.663Z,7.60
2019-03-26T15:12:04.993Z,7.70
2019-03-26T15:14:37.980Z,8.40
2019-03-26T15:17:11.068Z,7.30
2019-03-26T15:19:44.285Z,7.20
2019-03-26T15:22:17.423Z,6.87
2019-03-26T15:24:50.497Z,6.80
2019-03-26T15:27:23.515Z,7.20
2019-03-26T15:29:56.872Z,6.83
2019-03-26T15:32:29.937Z,6.40
2019-03-26T15:35:03.059Z,6.33
2019-03-26T15:37:36.188Z,6.90
2019-03-26T15:40:09.844Z,6.37
2019-03-26T15:42:42.752Z,6.73
2019-03-26T15:45:16.516Z,6.87
2019-03-26T15:47:49.748Z,6.27
2019-03-26T15:50:54.018Z,6.03
2019-03-26T15:53:27.118Z,5.90
2019-03-26T15:56:00.299Z,6.50
2019-03-26T15:58:33.345Z,6.10
2019-03-26T16:01:06.493Z,6.90
2019-03-26T16:03:39.686Z,6.90
2019-03-26T16:06:12.855Z,6.00
2019-03-26T16:08:46.114Z,6.50
2019-03-26T16:11:19.419Z,6.90
2019-03-26T16:13:52.562Z,6.63
2019-03-26T16:16:25.847Z,6.47
2019-03-26T16:18:59.064Z,6.43
2019-03-26T16:21:32.006Z,7.00
2019-03-26T16:24:05.282Z,6.93
2019-03-26T16:26:38.535Z,6.37
2019-03-26T16:29:11.774Z,6.13
2019-03-26T16:31:44.978Z,6.40
2019-03-26T16:34:18.630Z,6.70
2019-03-26T16:36:59.361Z,6.60
2019-03-26T16:39:26.523Z,6.67
2019-03-26T16:41:59.737Z,6.97
2019-03-26T16:44:33.035Z,7.07
2019-03-26T16:47:06.072Z,6.23
2019-03-26T16:49:39.104Z,7.43
2019-03-26T16:52:12.310Z,6.37
2019-03-26T16:54:45.623Z,5.40
2019-03-26T16:57:20.543Z,6.27
2019-03-26T16:59:53.635Z,5.53
2019-03-26T17:02:27.101Z,10.37
2019-03-26T17:05:00.528Z,12.07
2019-03-26T17:07:33.516Z,8.27
2019-03-26T17:10:08.384Z,6.47
2019-03-26T17:12:42.588Z,6.73
2019-03-26T17:15:15.961Z,6.70
2019-03-26T17:17:48.986Z,6.87
2019-03-26T17:20:23.968Z,7.80
2019-03-26T17:22:57.385Z,9.37
2019-03-26T17:25:30.725Z,9.40
2019-03-26T17:28:04.177Z,10.03
2019-03-26T17:30:37.495Z,10.00
2019-03-26T17:33:10.734Z,9.77
2019-03-26T17:35:43.891Z,12.00
2019-03-26T17:38:16.776Z,14.03
2019-03-26T17:40:49.919Z,12.77
2019-03-26T17:43:23.065Z,12.50
2019-03-26T17:45:56.141Z,26.37
2019-03-26T17:48:29.349Z,25.13
2019-03-26T17:51:02.632Z,23.23
2019-03-26T17:53:35.756Z,25.27
2019-03-26T17:56:08.840Z,24.67
2019-03-26T17:58:41.850Z,20.57
2019-03-26T18:01:15.114Z,22.10
2019-03-26T18:03:48.870Z,25.30
2019-03-26T18:06:22.073Z,24.60
2019-03-26T18:08:55.399Z,20.57
2019-03-26T18:11:28.390Z,16.60
2019-03-26T18:14:01.867Z,13.67
2019-03-26T18:16:35.086Z,13.23
2019-03-26T18:19:08.470Z,13.37
2019-03-26T18:21:51.318Z,16.80
2019-03-26T18:24:16.361Z,15.17
2019-03-26T18:26:49.734Z,17.67
2019-03-26T18:29:22.981Z,19.87
2019-03-26T18:31:56.218Z,18.37
2019-03-26T18:34:29.657Z,19.87
2019-03-26T18:37:03.091Z,19.43
2019-03-26T18:39:36.230Z,20.73
2019-03-26T18:42:09.675Z,19.57
2019-03-26T18:44:44.405Z,18.47
2019-03-26T18:47:17.652Z,15.93
2019-03-26T18:49:50.928Z,14.77
2019-03-26T18:52:24.559Z,11.70
2019-03-26T18:54:58.162Z,9.10
2019-03-26T18:57:31.516Z,9.53
2019-03-26T19:00:05.212Z,23.00
2019-03-26T19:02:38.799Z,22.27
2019-03-26T19:05:12.698Z,17.07
2019-03-26T19:07:47.885Z,11.50
2019-03-26T19:10:32.665Z,7.50
2019-03-26T19:13:18.780Z,7.17
2019-03-26T19:15:41.439Z,7.30
2019-03-26T19:18:14.303Z,7.23
2019-03-26T19:21:00.992Z,7.37
2019-03-26T19:23:22.295Z,7.50
2019-03-26T19:25:55.564Z,7.57
2019-03-26T19:28:28.607Z,6.70
2019-03-26T19:31:02.750Z,6.63
2019-03-26T19:33:35.874Z,6.67
2019-03-26T19:36:09.073Z,6.20
2019-03-26T19:38:44.015Z,7.20
2019-03-26T19:41:17.103Z,5.77
2019-03-26T19:43:50.005Z,5.10
2019-03-26T19:46:22.934Z,4.87
2019-03-26T19:48:56.058Z,5.20
2019-03-26T19:51:29.160Z,5.43
2019-03-26T19:54:02.038Z,5.43
2019-03-26T19:56:35.329Z,5.50
2019-03-26T19:59:08.706Z,5.03
2019-03-26T20:01:41.788Z,5.10
2019-03-26T20:04:14.884Z,5.87
2019-03-26T20:06:47.900Z,5.33
2019-03-26T20:09:20.931Z,5.33
2019-03-26T20:11:54.019Z,5.40
2019-03-26T20:14:27.043Z,5.60
2019-03-26T20:17:00.006Z,5.27
2019-03-26T20:19:33.107Z,4.90
2019-03-26T20:22:06.454Z,5.50
2019-03-26T20:24:39.505Z,5.03
2019-03-26T20:27:12.675Z,4.97
2019-03-26T20:29:45.739Z,5.53
2019-03-26T20:32:19.962Z,5.40
2019-03-26T20:34:52.994Z,6.10
2019-03-26T20:37:25.930Z,5.80
2019-03-26T20:39:59.226Z,5.23
2019-03-26T20:42:32.147Z,5.43
2019-03-26T20:45:05.854Z,4.97
2019-03-26T20:47:39.108Z,5.53
2019-03-26T20:50:14.509Z,5.43
2019-03-26T20:52:47.555Z,5.27
2019-03-26T20:55:33.974Z,6.00
2019-03-26T20:58:07.453Z,5.20
2019-03-26T21:00:44.482Z,5.63
2019-03-26T21:03:17.516Z,5.27
2019-03-26T21:05:50.339Z,6.00
2019-03-26T21:08:23.266Z,5.33
2019-03-26T21:10:56.191Z,5.43
2019-03-26T21:13:29.241Z,5.20
2019-03-26T21:16:02.283Z,5.00
2019-03-26T21:18:35.212Z,5.20
2019-03-26T21:21:08.303Z,5.47
2019-03-26T21:23:41.443Z,5.47
2019-03-26T21:26:14.543Z,5.97
2019-03-26T21:28:47.687Z,5.50
2019-03-26T21:31:20.825Z,5.77
2019-03-26T21:33:53.935Z,5.97
2019-03-26T21:36:27.077Z,5.73
2019-03-26T21:39:00.020Z,5.97
2019-03-26T21:41:33.046Z,5.63
2019-03-26T21:44:06.071Z,5.63
2019-03-26T21:46:39.037Z,5.57
2019-03-26T21:49:12.098Z,5.90
2019-03-26T21:51:45.034Z,5.43
2019-03-26T21:54:18.053Z,6.00
2019-03-26T21:56:51.118Z,5.70
2019-03-26T21:59:24.187Z,5.70
2019-03-26T22:01:57.085Z,6.00
2019-03-26T22:04:30.113Z,6.80
2019-03-26T22:07:03.207Z,5.93
2019-03-26T22:09:36.323Z,5.17
2019-03-26T22:12:09.903Z,6.07
2019-03-26T22:14:42.907Z,6.00
2019-03-26T22:17:15.908Z,5.97
2019-03-26T22:19:48.933Z,5.80
2019-03-26T22:22:21.891Z,6.20
2019-03-26T22:24:55.108Z,6.27
2019-03-26T22:27:28.341Z,5.60
2019-03-26T22:30:01.371Z,5.97
2019-03-26T22:32:34.492Z,5.37
2019-03-26T22:35:08.144Z,5.97
2019-03-26T22:37:41.188Z,5.67
2019-03-26T22:40:14.248Z,5.73
2019-03-26T22:42:47.259Z,6.07
2019-03-26T22:45:20.473Z,6.80
2019-03-26T22:47:53.505Z,5.47
2019-03-26T22:50:26.661Z,6.47
2019-03-26T22:52:59.633Z,5.40
2019-03-26T22:55:32.566Z,5.93
2019-03-26T22:58:05.468Z,6.33
2019-03-26T23:00:38.975Z,5.20
2019-03-26T23:03:11.951Z,6.00
2019-03-26T23:05:45.009Z,5.70
2019-03-26T23:08:17.906Z,5.90
2019-03-26T23:10:51.061Z,5.60
2019-03-26T23:13:24.192Z,6.30
2019-03-26T23:15:57.110Z,5.93
2019-03-26T23:18:30.134Z,5.97
2019-03-26T23:21:03.144Z,6.50
2019-03-26T23:23:35.984Z,6.30
2019-03-26T23:26:08.938Z,6.53
2019-03-26T23:28:41.794Z,6.63
2019-03-26T23:31:15.025Z,6.13
2019-03-26T23:33:47.944Z,5.80
2019-03-26T23:36:20.961Z,6.37
2019-03-26T23:38:53.770Z,5.57
2019-03-26T23:41:26.837Z,5.80
2019-03-26T23:43:59.661Z,5.87
2019-03-26T23:46:32.586Z,5.80
2019-03-26T23:49:05.523Z,5.60
2019-03-26T23:51:38.575Z,6.67
2019-03-26T23:54:11.501Z,6.67
2019-03-26T23:56:44.333Z,5.47
2019-03-26T23:59:17.115Z,5.70
